In Rescue
 
Open Full Screen Window  High Contrast Mode
Wind Gusting 14 knots
09
November 14, 2019 12:55 PM CST
Weather Information
Wind Direction
  270 °
Wind Speed
  09 kt (10 mph)
Wind Gust
  14 kt (16 mph)
Altimeter
30.25 in
Visibility
10 SM
Temperature
-01° C
30° F
Dewpoint
-08° C
18° F
Humidity
59%
1hr Rain Fall
00.00 in.
24hr Rain Fall
00.00 in.
Sky Condition
Clear
VFR

METAR KULM 141855Z AUTO 27009G14KT 10SM CLR M01/M08 A3025 RMK AO2

FAA Disclaimer: The data displayed is for advisory purposes only and is not to be used for flight planning or operations.